Attica, Indiana
Current Conditions -  °F | °C
As of 1:54 AM on Saturday 25 Oct 2014 (Local Time) from KLAF Reporting Station
Haze Haze  
Wind Chill: 52°   Ceiling: 6000
Heat Index: 52°   Visibility: 6mi
Dew Point: 51°   Wind: 0mph
Humidity: 97%   Direction: NA
Pressure: 29.97"   Gusts: NA
Location:  40.29°N, 87.25°W
Report Text: KLAF 250554Z AUTO 00000KT 6SM BR BKN060 OVC095 11/11 A2997 RMK AO2 SLP149 T01110106 10128 20100 55011 TSNO
Loading
Personal Weather Stations






























Interactive Weather Map
Tropical Storm Tracking
New forecast layout! Learn more

10-Day Weather Forecast

Advertisements
Track Severe Weather on mobile